Terminal Aerodrome Forecast
Issued by NWS

Current Version | Previous Version | Text Only | Print | Product List | Glossary On
Versions: 1 2 3 4 5 6 7 8 9 10 11 12 13 14 15
000
FTUS45 KRIW 301100
TAFWRL
TAF
KWRL 301127Z 3012/0112 VRB05KT P6SM FEW050 SCT100
     FM302000 34005KT P6SM VCSH SCT060 BKN100
     FM010400 34011KT P6SM VCSH OVC025=

USA.gov is the U.S. government's official web portal to all federal, state and local government web resources and services.